Time;durP1;ratioP1;P1;durP2;ratioP2;P2;SDS_P1;SDS_P2;PMS_P1;PMS_P2;Temp;Humidity;BMP_temperature;BMP_pressure;BME280_temperature;BME280_humidity;BME280_pressure;Samples;Min_cycle;Max_cycle;Signal;HPM_P1;HPM_P2
2022/01/18 00:00:00;;;;;;;23.57;8.05;;;;;;;-0.62;73.28;99947.08;1714591;84;21464;-37
2022/01/18 00:02:22;;;;;;;31.27;10.50;;;;;;;-0.60;73.12;99946.64;1714117;84;21484;-38
2022/01/18 00:04:47;;;;;;;20.40;7.90;;;;;;;-0.62;73.22;99952.24;1714628;83;20979;-38
2022/01/18 00:07:13;;;;;;;24.32;7.70;;;;;;;-0.62;73.29;99952.24;1714634;83;21045;-37
2022/01/18 00:09:39;;;;;;;22.20;9.03;;;;;;;-0.63;73.53;99955.27;1714694;83;21452;-36
2022/01/18 00:12:29;;;;;;;23.35;8.53;;;;;;;-0.58;73.34;99957.87;1714599;84;20963;-36
2022/01/18 00:14:42;;;;;;;27.52;7.80;;;;;;;-0.64;73.54;99959.13;1711651;84;21515;-37
2022/01/18 00:17:29;;;;;;;22.25;7.85;;;;;;;-0.63;73.60;99966.89;1714456;83;21034;-37
2022/01/18 00:19:54;;;;;;;22.65;6.87;;;;;;;-0.69;73.76;99972.06;1712985;83;21560;-37
2022/01/18 00:22:14;;;;;;;19.52;6.55;;;;;;;-0.71;73.70;99971.61;1713844;83;20935;-37
2022/01/18 00:24:41;;;;;;;17.30;7.12;;;;;;;-0.70;73.92;99976.78;1714793;83;21001;-37
2022/01/18 00:27:12;;;;;;;19.50;6.62;;;;;;;-0.73;73.81;99977.20;1714705;83;20986;-37
2022/01/18 00:29:43;;;;;;;22.20;6.78;;;;;;;-0.81;74.08;99979.34;1714466;83;20990;-38
2022/01/18 00:32:28;;;;;;;13.70;5.87;;;;;;;-0.81;74.52;99975.47;1713943;83;20991;-38
2022/01/18 00:34:37;;;;;;;17.05;5.37;;;;;;;-0.82;74.70;99981.52;1712568;83;21018;-38
2022/01/18 00:39:36;;;;;;;16.95;5.95;;;;;;;-0.95;75.93;99992.64;1714573;83;20111;-38
2022/01/18 00:42:04;;;;;;;15.08;5.50;;;;;;;-1.01;76.09;99987.05;1714602;84;20986;-38
2022/01/18 00:44:30;;;;;;;20.52;5.72;;;;;;;-1.04;76.22;99986.17;1714510;84;21050;-38
2022/01/18 00:46:55;;;;;;;20.40;5.58;;;;;;;-1.01;76.03;99990.91;1714546;83;20997;-38
2022/01/18 00:49:21;;;;;;;18.65;5.97;;;;;;;-1.02;75.91;100003.81;1722222;83;21026;-37
2022/01/18 00:51:56;;;;;;;23.42;6.42;;;;;;;-1.06;76.51;99995.20;1723548;83;21045;-37
2022/01/18 00:54:20;;;;;;;;;;;;;;;-1.08;76.67;99994.77;1724760;82;21412;-37
2022/01/18 00:56:43;;;;;;;27.77;7.25;;;;;;;-1.10;77.06;99996.05;1722796;83;20103;-37
2022/01/18 00:59:09;;;;;;;28.52;7.12;;;;;;;-1.08;76.95;100018.00;1723621;83;20997;-37
2022/01/18 01:01:36;;;;;;;19.70;5.30;;;;;;;-1.12;77.50;100024.02;1723532;83;20994;-37
2022/01/18 01:04:04;;;;;;;18.00;5.20;;;;;;;-1.10;77.66;100027.46;1723880;83;21868;-37
2022/01/18 01:06:31;;;;;;;18.32;5.30;;;;;;;-1.07;77.59;100029.63;1723609;83;21722;-37
2022/01/18 01:08:57;;;;;;;17.70;5.20;;;;;;;-1.09;77.50;100033.05;1723448;83;21014;-37
2022/01/18 01:11:24;;;;;;;22.40;6.37;;;;;;;-1.13;77.82;100039.91;1723552;83;20994;-37
2022/01/18 01:13:54;;;;;;;15.73;5.23;;;;;;;-1.14;77.96;100056.27;1723820;83;20994;-37
2022/01/18 01:16:46;;;;;;;14.83;4.80;;;;;;;-1.09;77.97;100061.44;1723728;83;21038;-37
2022/01/18 01:19:11;;;;;;;14.93;5.03;;;;;;;-1.06;77.74;100059.73;1720393;83;21041;-38
2022/01/18 01:35:33;;;;;;;17.32;5.70;;;;;;;-1.22;78.92;100049.79;1723532;83;20978;-38
2022/01/18 01:43:26;;;;;;;16.75;5.10;;;;;;;-1.26;79.98;100047.17;1723767;83;21387;-38
2022/01/18 01:45:41;;;;;;;17.90;4.97;;;;;;;-1.31;80.07;100040.72;1721946;83;20994;-36
2022/01/18 01:48:08;;;;;;;16.77;5.30;;;;;;;-1.30;80.06;100033.83;1721626;83;21069;-37
2022/01/18 01:50:49;;;;;;;16.25;4.20;;;;;;;-1.29;79.96;100034.24;1714915;83;21600;-37
2022/01/18 01:53:14;;;;;;;21.00;4.62;;;;;;;-1.33;80.93;100033.80;1714056;84;20947;-37
2022/01/18 01:55:41;;;;;;;14.28;4.25;;;;;;;-1.33;80.97;100032.08;1714537;83;21479;-37
2022/01/18 01:58:07;;;;;;;17.73;4.95;;;;;;;-1.28;80.71;100042.00;1714888;84;20959;-37
2022/01/18 02:00:34;;;;;;;16.02;4.65;;;;;;;-1.22;80.95;100041.16;1714518;83;20999;-37
2022/01/18 02:03:00;;;;;;;21.60;5.42;;;;;;;-1.21;80.61;100041.17;1696780;84;21521;-37
2022/01/18 02:05:26;;;;;;;19.95;5.65;;;;;;;-1.24;81.45;100050.18;1714572;83;20989;-37
2022/01/18 02:07:51;;;;;;;21.23;5.12;;;;;;;-1.19;81.42;100045.05;1714467;84;20970;-38
2022/01/18 02:10:17;;;;;;;18.73;5.33;;;;;;;-1.20;81.68;100049.77;1714497;84;20994;-38
2022/01/18 02:12:43;;;;;;;18.95;4.55;;;;;;;-1.20;81.88;100051.95;1714599;83;20998;-37
2022/01/18 02:15:18;;;;;;;19.85;4.72;;;;;;;-1.27;82.35;100047.61;1714510;83;20982;-37
2022/01/18 02:23:15;;;;;;;15.60;4.37;;;;;;;-1.25;82.21;100052.34;1714574;84;20983;-38
2022/01/18 02:25:41;;;;;;;20.48;4.85;;;;;;;-1.23;82.20;100055.80;1714455;83;20987;-38
2022/01/18 02:28:07;;;;;;;15.48;4.45;;;;;;;-1.23;82.33;100058.81;1714557;83;20983;-38
2022/01/18 02:30:32;;;;;;;15.35;4.72;;;;;;;-1.26;83.01;100064.80;1714534;83;21633;-37
2022/01/18 02:32:58;;;;;;;19.80;4.87;;;;;;;-1.25;82.80;100066.54;1714460;83;20994;-37
2022/01/18 02:35:24;;;;;;;13.95;4.90;;;;;;;-1.26;82.82;100072.98;1714491;84;21034;-38
2022/01/18 02:37:54;;;;;;;15.45;4.60;;;;;;;-1.31;83.46;100069.50;1714474;83;20994;-38
2022/01/18 02:43:46;;;;;;;15.60;4.65;;;;;;;-1.25;83.84;100070.41;1729133;80;21100;-38
2022/01/18 02:45:28;;;;;;;22.45;5.55;;;;;;;-1.30;84.04;100073.39;1725477;83;21071;-38
2022/01/18 02:47:55;;;;;;;15.90;5.03;;;;;;;-1.28;83.56;100083.28;1731668;83;21011;-38
2022/01/18 02:50:22;;;;;;;16.02;4.30;;;;;;;-1.26;83.80;100095.77;1731350;83;21139;-38
2022/01/18 02:52:48;;;;;;;21.73;5.83;;;;;;;-1.25;83.44;100086.33;1731833;81;21007;-38
2022/01/18 02:55:14;;;;;;;19.05;4.97;;;;;;;-1.18;83.36;100082.93;1731762;83;21871;-38
2022/01/18 02:57:55;;;;;;;18.07;4.60;;;;;;;-1.29;83.43;100080.29;1731851;83;21414;-38
2022/01/18 03:03:11;;;;;;;17.40;3.92;;;;;;;-1.34;83.97;100095.31;1729126;83;21044;-38
2022/01/18 03:05:25;;;;;;;15.68;4.60;;;;;;;-1.31;84.00;100095.30;1731819;83;21000;-38
2022/01/18 03:07:51;;;;;;;22.60;5.33;;;;;;;-1.25;83.85;100092.34;1731758;83;21015;-38
2022/01/18 03:10:17;;;;;;;15.95;4.50;;;;;;;-1.28;83.91;100087.16;1731754;83;21035;-39
2022/01/18 03:12:43;;;;;;;25.52;5.62;;;;;;;-1.20;83.57;100084.20;1731751;83;20976;-38
2022/01/18 03:15:10;;;;;;;15.50;5.45;;;;;;;-1.30;83.73;100088.88;1731781;83;21031;-38
2022/01/18 03:17:36;;;;;;;15.70;4.65;;;;;;;-1.29;84.04;100098.76;1731722;83;21047;-36
2022/01/18 03:20:05;;;;;;;16.20;5.10;;;;;;;-1.23;84.22;100100.10;1731991;83;21044;-36
2022/01/18 03:22:31;;;;;;;20.88;4.78;;;;;;;-1.32;84.25;100099.61;1731856;83;20980;-37
2022/01/18 03:25:24;;;;;;;23.10;4.80;;;;;;;-1.28;83.92;100093.61;1731863;83;21011;-38
2022/01/18 03:30:14;;;;;;;18.95;4.65;;;;;;;-1.24;83.85;100099.22;1731727;83;21541;-37
2022/01/18 03:32:40;;;;;;;21.80;4.62;;;;;;;-1.21;83.74;100108.71;1731829;83;21529;-37
2022/01/18 03:35:09;;;;;;;16.65;4.55;;;;;;;-1.27;83.92;100116.43;1731805;83;21520;-37
2022/01/18 03:37:36;;;;;;;19.17;4.75;;;;;;;-1.27;84.04;100122.45;1731786;83;20996;-38
2022/01/18 03:40:05;;;;;;;13.35;3.92;;;;;;;-1.31;83.87;100125.87;1731786;81;21011;-38
2022/01/18 03:42:38;;;;;;;12.35;3.62;;;;;;;-1.35;84.41;100122.81;1731675;81;21580;-38
2022/01/18 03:45:04;;;;;;;18.15;4.65;;;;;;;-1.36;84.41;100124.97;1730632;83;21000;-37
2022/01/18 03:47:32;;;;;;;23.12;4.20;;;;;;;-1.41;85.23;100116.33;1731873;83;21012;-38
2022/01/18 03:49:58;;;;;;;14.10;4.22;;;;;;;-1.36;84.88;100119.81;1731788;83;21012;-36
2022/01/18 03:52:24;;;;;;;18.05;4.58;;;;;;;-1.37;84.98;100118.92;1731796;83;21548;-36
2022/01/18 03:54:51;;;;;;;18.50;3.90;;;;;;;-1.40;85.09;100121.51;1731752;83;21489;-36
2022/01/18 03:57:18;;;;;;;12.00;3.43;;;;;;;-1.36;84.81;100121.09;1731950;83;21007;-37
2022/01/18 03:59:45;;;;;;;10.30;3.80;;;;;;;-1.33;84.67;100122.39;1731863;83;21314;-36
2022/01/18 04:02:11;;;;;;;12.28;3.62;;;;;;;-1.36;84.87;100120.66;1731912;83;21540;-37
2022/01/18 04:04:40;;;;;;;15.60;4.12;;;;;;;-1.43;84.55;100130.94;1731708;83;21003;-37
2022/01/18 04:07:07;;;;;;;18.65;5.17;;;;;;;-1.36;84.97;100132.71;1731694;83;21541;-36
2022/01/18 04:09:34;;;;;;;13.88;3.83;;;;;;;-1.37;85.18;100142.14;1731975;83;20985;-37
2022/01/18 04:12:02;;;;;;;21.15;4.28;;;;;;;-1.43;85.37;100134.81;1731841;83;21039;-36
2022/01/18 04:14:28;;;;;;;19.50;4.90;;;;;;;-1.38;85.22;100140.88;1731729;83;21000;-37
2022/01/18 04:27:37;;;;;;;13.45;4.00;;;;;;;-1.41;85.63;100158.47;1731837;83;21023;-38
2022/01/18 04:30:01;;;;;;;11.28;3.85;;;;;;;-1.34;85.48;100148.20;1731140;83;20996;-38
2022/01/18 04:32:27;;;;;;;20.75;5.03;;;;;;;-1.30;85.47;100150.80;1731969;83;21035;-37
2022/01/18 04:34:52;;;;;;;16.45;4.35;;;;;;;-1.30;85.38;100149.51;1731825;83;21027;-37
2022/01/18 04:37:18;;;;;;;14.07;4.00;;;;;;;-1.24;85.69;100151.27;1731874;81;21039;-38
2022/01/18 04:39:46;;;;;;;9.38;3.50;;;;;;;-1.27;85.62;100156.42;1731876;83;20999;-38
2022/01/18 04:42:36;;;;;;;23.75;5.72;;;;;;;-1.25;85.72;100165.04;1726813;83;21068;-38
2022/01/18 04:50:14;;;;;;;15.98;4.60;;;;;;;-1.27;86.05;100160.30;1714512;83;20988;-38
2022/01/18 04:52:39;;;;;;;18.02;4.75;;;;;;;-1.25;85.60;100170.20;1714098;83;21460;-37
2022/01/18 04:55:07;;;;;;;19.48;5.20;;;;;;;-1.28;86.21;100169.73;1714370;83;21009;-38
2022/01/18 05:00:16;;;;;;;20.57;5.25;;;;;;;-1.31;86.38;100181.34;1714113;84;20993;-38
2022/01/18 05:02:42;;;;;;;20.32;5.08;;;;;;;-1.27;85.98;100195.14;1714056;84;21016;-38
2022/01/18 05:05:10;;;;;;;17.57;5.35;;;;;;;-1.25;85.96;100185.25;1714087;82;21009;-38
2022/01/18 05:07:36;;;;;;;21.12;5.42;;;;;;;-1.25;85.96;100185.25;1714134;83;21004;-38
2022/01/18 05:10:03;;;;;;;13.18;4.83;;;;;;;-1.30;86.39;100180.91;1714462;83;21494;-38
2022/01/18 05:12:45;;;;;;;17.27;4.95;;;;;;;-1.30;86.39;100180.91;1714709;83;21001;-39
2022/01/18 05:15:21;;;;;;;14.27;4.80;;;;;;;-1.31;86.31;100194.25;1712383;84;21073;-38
2022/01/18 05:21:09;;;;;;;14.35;3.92;;;;;;;-1.33;86.51;100206.25;1687012;83;20957;-38
2022/01/18 05:25:23;;;;;;;14.20;4.92;;;;;;;-1.25;86.34;100211.06;1714051;84;21100;-37
2022/01/18 05:27:49;;;;;;;16.25;5.70;;;;;;;-1.22;86.60;100220.52;1714056;84;20997;-38
2022/01/18 05:30:15;;;;;;;23.67;5.83;;;;;;;-1.16;86.38;100221.45;1713375;84;21005;-38
2022/01/18 05:32:40;;;;;;;11.60;4.37;;;;;;;-1.10;86.19;100217.19;1714332;83;21040;-37
2022/01/18 05:35:07;;;;;;;14.73;5.25;;;;;;;-1.08;85.94;100220.64;1713504;84;20989;-38
2022/01/18 05:37:33;;;;;;;32.47;6.47;;;;;;;-1.13;86.56;100232.64;1714441;83;20997;-38
2022/01/18 05:39:59;;;;;;;21.80;6.22;;;;;;;-1.08;86.05;100228.38;1714078;83;21788;-38
2022/01/18 05:42:24;;;;;;;19.90;7.78;;;;;;;-1.11;86.62;100236.98;1715686;82;21013;-39
2022/01/18 05:44:50;;;;;;;17.70;6.08;;;;;;;-1.16;86.60;100243.83;1719681;83;21052;-37
2022/01/18 05:47:16;;;;;;;24.18;6.97;;;;;;;-1.12;86.47;100230.52;1719802;83;21048;-38
2022/01/18 05:49:42;;;;;;;29.15;9.10;;;;;;;-1.14;86.56;100240.82;1719635;83;21000;-38
2022/01/18 05:52:08;;;;;;;16.17;6.47;;;;;;;-1.20;86.55;100237.77;1719722;83;21008;-38
2022/01/18 05:54:33;;;;;;;17.52;5.80;;;;;;;-1.13;86.34;100239.09;1719776;83;21506;-38
2022/01/18 05:56:59;;;;;;;19.65;7.60;;;;;;;-1.16;86.52;100237.37;1719692;83;21529;-38
2022/01/18 05:59:34;;;;;;;23.87;6.62;;;;;;;-1.10;86.22;100238.69;1719697;83;21527;-37
2022/01/18 06:02:01;;;;;;;20.10;6.25;;;;;;;-1.05;86.08;100247.78;1718328;83;21020;-38
2022/01/18 06:07:03;;;;;;;19.50;7.53;;;;;;;-1.04;86.46;100249.05;1652072;83;21072;-38
2022/01/18 06:09:29;;;;;;;29.15;7.15;;;;;;;-1.07;86.36;100255.50;1719612;83;21409;-38
2022/01/18 06:11:54;;;;;;;21.45;6.35;;;;;;;-1.09;86.61;100256.33;1719643;83;21040;-38
2022/01/18 06:14:20;;;;;;;23.55;7.37;;;;;;;-1.04;86.43;100262.39;1719653;83;21048;-38
2022/01/18 06:16:46;;;;;;;27.50;7.95;;;;;;;-1.03;86.24;100262.84;1719536;82;21012;-38
2022/01/18 06:19:12;;;;;;;15.72;5.33;;;;;;;-1.08;86.66;100272.27;1719576;83;20989;-38
2022/01/18 06:21:38;;;;;;;20.90;5.78;;;;;;;-0.98;86.55;100268.91;1719639;83;21004;-38
2022/01/18 06:24:05;;;;;;;21.87;6.28;;;;;;;-1.07;86.60;100274.02;1719590;83;21016;-38
2022/01/18 06:26:30;;;;;;;20.95;7.30;;;;;;;-1.06;86.63;100282.17;1719847;83;21647;-38
2022/01/18 06:28:57;;;;;;;27.58;8.50;;;;;;;-1.08;86.77;100280.87;1719660;82;21400;-36
2022/01/18 06:31:23;;;;;;;17.90;5.67;;;;;;;-0.99;86.45;100292.55;1719801;83;21321;-36
2022/01/18 06:33:49;;;;;;;18.92;5.45;;;;;;;-1.00;86.73;100297.70;1719582;83;21703;-37
2022/01/18 06:36:15;;;;;;;22.60;7.72;;;;;;;-1.02;87.09;100300.30;1719637;83;20989;-38
2022/01/18 06:38:41;;;;;;;17.48;5.78;;;;;;;-0.90;86.64;100298.22;1719627;83;21012;-38
2022/01/18 06:41:07;;;;;;;17.45;5.53;;;;;;;-0.80;86.50;100315.52;1719621;82;20980;-37
2022/01/18 06:43:32;;;;;;;18.95;5.35;;;;;;;-0.92;86.75;100311.98;1717351;83;21005;-38
2022/01/18 06:45:59;;;;;;;26.05;10.98;;;;;;;-0.92;86.45;100314.13;1716315;83;21048;-38
2022/01/18 06:48:25;;;;;;;16.27;6.27;;;;;;;-0.90;86.61;100321.46;1716648;83;21041;-37
2022/01/18 06:50:50;;;;;;;15.83;5.50;;;;;;;-0.77;86.50;100324.56;1716268;83;21013;-37
2022/01/18 06:53:16;;;;;;;26.37;8.65;;;;;;;-0.85;86.47;100331.41;1716388;83;20989;-37
2022/01/18 06:55:42;;;;;;;42.35;14.23;;;;;;;-0.88;86.62;100332.66;1716440;83;21012;-37
2022/01/18 06:58:08;;;;;;;31.27;10.30;;;;;;;-0.83;86.28;100336.59;1716296;83;21056;-38
2022/01/18 07:00:33;;;;;;;35.83;12.55;;;;;;;-0.81;86.28;100342.19;1716248;83;20989;-37
2022/01/18 07:02:59;;;;;;;22.60;8.15;;;;;;;-0.72;86.30;100348.30;1716273;83;21161;-38
2022/01/18 07:05:25;;;;;;;22.02;8.33;;;;;;;-0.70;85.90;100354.34;1716250;83;21032;-37
2022/01/18 07:07:51;;;;;;;21.68;6.33;;;;;;;-0.66;85.86;100357.38;1696281;83;20977;-38
2022/01/18 07:10:16;;;;;;;18.30;7.10;;;;;;;-0.69;85.76;100352.17;1716288;83;21048;-37
2022/01/18 07:12:42;;;;;;;16.62;6.20;;;;;;;-0.67;85.78;100353.94;1716292;83;21044;-37
2022/01/18 07:15:10;;;;;;;19.50;5.70;;;;;;;-0.64;85.70;100359.13;1716340;83;21004;-38
2022/01/18 07:17:40;;;;;;;18.85;5.78;;;;;;;-0.62;85.79;100368.16;1716420;83;21017;-38
2022/01/18 07:20:08;;;;;;;19.12;5.78;;;;;;;-0.58;85.83;100366.06;1716400;83;21052;-37
2022/01/18 07:22:34;;;;;;;23.42;7.62;;;;;;;-0.51;85.66;100368.23;1716406;83;21009;-37
2022/01/18 07:25:02;;;;;;;13.20;4.80;;;;;;;-0.54;85.79;100372.97;1716248;83;21044;-37
2022/01/18 07:27:27;;;;;;;18.77;7.05;;;;;;;-0.44;85.63;100373.89;1716211;83;21048;-38
2022/01/18 07:29:53;;;;;;;22.15;6.92;;;;;;;-0.44;85.26;100382.53;1716248;83;21008;-38
2022/01/18 07:32:20;;;;;;;25.23;6.65;;;;;;;-0.44;85.32;100384.23;1716250;83;21033;-38
2022/01/18 07:34:54;;;;;;;24.37;7.25;;;;;;;-0.47;85.45;100390.25;1716446;83;21530;-38
2022/01/18 07:37:22;;;;;;;24.57;7.70;;;;;;;-0.40;85.36;100390.73;1716283;83;21157;-38
2022/01/18 07:39:51;;;;;;;32.28;13.15;;;;;;;-0.33;85.14;100402.39;1716281;83;20996;-38
2022/01/18 07:42:18;;;;;;;37.70;11.80;;;;;;;-0.33;85.11;100399.81;1716132;83;21020;-38
2022/01/18 07:44:45;;;;;;;23.67;8.93;;;;;;;-0.31;84.97;100407.14;1713966;84;20989;-38
2022/01/18 07:47:11;;;;;;;29.18;10.15;;;;;;;-0.35;85.15;100404.11;1713930;84;21000;-38
2022/01/18 07:49:36;;;;;;;31.68;11.03;;;;;;;-0.40;85.22;100411.81;1715594;83;21013;-37
2022/01/18 07:52:03;;;;;;;21.35;8.00;;;;;;;-0.36;85.11;100405.84;1714242;83;21009;-38
2022/01/18 07:54:29;;;;;;;18.37;7.77;;;;;;;-0.42;85.20;100417.41;1714348;83;20970;-38
2022/01/18 07:56:55;;;;;;;24.20;10.63;;;;;;;-0.36;85.38;100421.34;1714297;83;21552;-37
2022/01/18 07:59:21;;;;;;;40.33;13.08;;;;;;;-0.34;85.41;100413.17;1714243;83;21500;-38
2022/01/18 08:01:47;;;;;;;26.00;9.43;;;;;;;-0.30;85.14;100415.34;1714618;83;21020;-38
2022/01/18 08:04:13;;;;;;;42.30;14.18;;;;;;;-0.28;85.30;100438.19;1714504;83;21013;-37
2022/01/18 08:06:40;;;;;;;29.07;10.38;;;;;;;-0.31;85.27;100439.45;1713761;83;21028;-37
2022/01/18 08:09:06;;;;;;;29.02;10.23;;;;;;;-0.29;85.34;100447.67;1714598;83;21016;-37
2022/01/18 08:11:32;;;;;;;30.85;12.73;;;;;;;-0.15;85.38;100465.85;1714095;83;21502;-37
2022/01/18 08:14:00;;;;;;;29.40;12.15;;;;;;;-0.18;85.14;100458.09;1714106;82;21005;-37
2022/01/18 08:19:00;;;;;;;20.43;6.75;;;;;;;-0.04;84.81;100465.53;1714086;84;21462;-37
2022/01/18 08:21:26;;;;;;;20.00;6.62;;;;;;;0.00;84.69;100471.59;1714104;83;21008;-38
2022/01/18 08:23:53;;;;;;;27.02;6.80;;;;;;;-0.10;85.00;100470.63;1714166;83;21485;-37
2022/01/18 08:26:19;;;;;;;18.15;6.20;;;;;;;-0.07;85.10;100471.96;1714092;84;21011;-37
2022/01/18 08:28:46;;;;;;;15.55;5.80;;;;;;;0.02;84.92;100461.22;1714085;84;20977;-37
2022/01/18 08:31:11;;;;;;;21.20;7.62;;;;;;;0.09;84.89;100472.05;1714418;83;21008;-36
2022/01/18 08:33:38;;;;;;;20.32;6.58;;;;;;;0.10;84.93;100475.09;1713339;83;21012;-37
2022/01/18 08:36:06;;;;;;;15.85;5.95;;;;;;;0.09;84.65;100479.41;1712813;84;21560;-37
2022/01/18 08:38:34;;;;;;;26.73;8.88;;;;;;;0.09;84.68;100478.11;1714040;84;21001;-37
2022/01/18 08:41:02;;;;;;;20.08;5.92;;;;;;;0.13;84.55;100486.75;1714296;83;21510;-37
2022/01/18 08:43:31;;;;;;;;;;;;;;;0.14;84.42;100497.09;1723150;83;21008;-37
2022/01/18 08:46:03;;;;;;;18.60;7.47;;;;;;;0.15;84.62;100504.44;1731756;83;20536;-37
2022/01/18 08:48:28;;;;;;;18.60;6.00;;;;;;;0.26;84.53;100513.12;1731760;83;21505;-37
2022/01/18 08:50:54;;;;;;;21.57;6.45;;;;;;;0.07;84.12;100512.56;1731752;83;21145;-37
2022/01/18 08:53:21;;;;;;;23.57;7.47;;;;;;;0.31;84.43;100520.50;1731295;81;20996;-37
2022/01/18 08:55:46;;;;;;;24.40;8.70;;;;;;;0.36;84.19;100523.98;1734746;81;21069;-37
2022/01/18 08:58:13;;;;;;;18.32;7.37;;;;;;;0.44;84.00;100526.61;1734691;82;21002;-37
2022/01/18 09:00:39;;;;;;;22.07;6.97;;;;;;;0.32;83.60;100529.97;1736341;82;21373;-38
2022/01/18 09:03:06;;;;;;;23.87;6.40;;;;;;;0.43;83.81;100530.48;1735973;83;20990;-38
2022/01/18 09:05:31;;;;;;;19.30;6.78;;;;;;;0.47;83.79;100528.34;1735989;81;21050;-38
2022/01/18 09:08:04;;;;;;;27.27;10.03;;;;;;;0.51;83.69;100532.27;1736002;82;21499;-38
2022/01/18 09:10:26;;;;;;;20.05;7.87;;;;;;;0.47;83.38;100534.81;1734924;82;21390;-39
2022/01/18 09:12:52;;;;;;;16.17;5.72;;;;;;;0.52;83.19;100540.88;1736227;83;21010;-37
2022/01/18 09:15:18;;;;;;;16.35;7.20;;;;;;;0.61;83.14;100545.25;1736045;83;21011;-37
2022/01/18 09:17:44;;;;;;;12.93;4.85;;;;;;;0.62;83.19;100553.44;1736022;83;20978;-38
2022/01/18 09:20:14;;;;;;;18.60;7.62;;;;;;;0.60;83.06;100565.11;1735933;83;21006;-38
2022/01/18 09:22:44;;;;;;;19.30;6.72;;;;;;;0.55;83.16;100562.47;1735905;83;21014;-38
2022/01/18 09:25:18;;;;;;;20.02;5.72;;;;;;;0.71;83.18;100562.55;1735974;83;21066;-38
2022/01/18 09:27:44;;;;;;;18.80;7.45;;;;;;;0.69;82.86;100561.27;1735130;82;21370;-38
2022/01/18 09:30:12;;;;;;;23.85;10.72;;;;;;;0.67;82.64;100557.78;1737230;82;20996;-38
2022/01/18 09:32:38;;;;;;;28.98;13.08;;;;;;;0.83;82.59;100564.34;1736920;82;21000;-38
2022/01/18 09:35:06;;;;;;;23.65;12.28;;;;;;;0.76;82.13;100569.91;1736899;82;21000;-38
2022/01/18 09:37:33;;;;;;;19.25;8.60;;;;;;;0.98;82.40;100572.17;1737239;82;21047;-39
2022/01/18 09:39:59;;;;;;;24.17;7.00;;;;;;;0.97;82.02;100570.90;1737519;82;21039;-38
2022/01/18 09:42:33;;;;;;;17.00;6.15;;;;;;;0.99;81.93;100570.03;1737036;82;21019;-38
2022/01/18 09:44:54;;;;;;;16.05;6.55;;;;;;;0.97;81.76;100574.34;1709249;82;21119;-37
2022/01/18 09:47:22;;;;;;;20.77;7.47;;;;;;;1.10;81.64;100570.08;1729758;83;21004;-38
2022/01/18 09:49:47;;;;;;;;;;;;;;;1.19;81.49;100579.62;1732029;83;21387;-38
2022/01/18 09:52:13;;;;;;;17.75;5.58;;;;;;;1.08;81.29;100577.84;1730096;83;20117;-38
2022/01/18 09:54:39;;;;;;;17.95;6.78;;;;;;;1.02;80.80;100575.23;1729734;83;21516;-38
2022/01/18 09:57:05;;;;;;;21.57;7.95;;;;;;;1.09;81.02;100576.99;1729713;83;21022;-38
2022/01/18 09:59:32;;;;;;;17.62;6.62;;;;;;;0.99;80.85;100582.13;1729945;83;21505;-38
2022/01/18 10:02:01;;;;;;;14.40;6.12;;;;;;;1.10;81.16;100582.59;1729424;83;21533;-39
2022/01/18 10:04:31;;;;;;;19.60;6.78;;;;;;;1.21;81.23;100581.78;1729622;83;21000;-38
2022/01/18 10:06:56;;;;;;;;;;;;;;;1.10;80.46;100576.12;1731474;83;21031;-37
2022/01/18 10:09:23;;;;;;;19.20;6.37;;;;;;;1.21;80.73;100580.48;1729723;83;20116;-37
2022/01/18 10:12:15;;;;;;;22.27;7.50;;;;;;;1.34;80.68;100586.13;1729715;83;21025;-37
2022/01/18 10:14:59;;;;;;;14.85;7.12;;;;;;;1.32;80.17;100590.02;1729367;83;21023;-39
2022/01/18 10:17:38;;;;;;;17.82;6.03;;;;;;;1.41;80.20;100579.25;1729598;83;21465;-38
2022/01/18 10:20:13;;;;;;;19.52;6.37;;;;;;;1.42;80.21;100592.23;1729569;83;21019;-38
2022/01/18 10:22:42;;;;;;;15.70;6.00;;;;;;;1.50;80.20;100593.09;1729070;83;21008;-40
2022/01/18 10:25:27;;;;;;;14.47;5.35;;;;;;;1.49;79.77;100610.83;1729934;83;21008;-39
2022/01/18 10:27:54;;;;;;;17.02;6.10;;;;;;;1.50;79.93;100606.50;1729787;83;21611;-39
2022/01/18 10:30:37;;;;;;;15.30;6.62;;;;;;;1.46;79.68;100612.10;1729955;83;21019;-39
2022/01/18 10:33:13;;;;;;;14.78;4.92;;;;;;;1.56;80.08;100611.69;1728961;83;21028;-38
2022/01/18 10:35:36;;;;;;;13.85;5.70;;;;;;;1.46;79.28;100617.28;1728956;83;21035;-39
2022/01/18 10:38:05;;;;;;;19.37;5.53;;;;;;;1.40;79.43;100622.46;1730291;83;21012;-38
2022/01/18 10:40:33;;;;;;;12.60;4.80;;;;;;;1.41;79.79;100624.61;1725784;83;21043;-36
2022/01/18 10:43:04;;;;;;;15.25;5.40;;;;;;;1.49;79.86;100626.38;1729577;83;22168;-39
2022/01/18 10:45:31;;;;;;;;;;;;;;;1.52;80.28;100630.70;1730708;83;21033;-37
2022/01/18 10:48:10;;;;;;;10.80;5.47;;;;;;;1.45;79.79;100637.58;1729579;83;20128;-38
2022/01/18 10:50:35;;;;;;;14.28;5.67;;;;;;;1.46;79.40;100643.20;1728432;83;21040;-37
2022/01/18 10:53:18;;;;;;;16.42;5.20;;;;;;;1.36;79.25;100637.98;1730057;83;21007;-38
2022/01/18 10:55:47;;;;;;;16.67;5.55;;;;;;;1.47;79.40;100643.63;1729478;83;21512;-37
2022/01/18 10:58:16;;;;;;;18.40;6.03;;;;;;;1.44;79.31;100648.83;1729575;83;21015;-38
2022/01/18 11:00:43;;;;;;;14.33;5.22;;;;;;;1.33;79.61;100646.19;1729700;83;21011;-44
2022/01/18 11:03:10;;;;;;;16.20;6.25;;;;;;;1.55;79.84;100647.56;1729966;83;21047;-38
2022/01/18 11:05:39;;;;;;;16.15;5.92;;;;;;;1.63;79.85;100651.47;1729680;83;21015;-37
2022/01/18 11:08:06;;;;;;;21.93;7.62;;;;;;;1.68;79.65;100650.63;1729529;83;21058;-39
2022/01/18 11:10:42;;;;;;;22.32;7.78;;;;;;;1.67;79.30;100654.50;1729809;83;21031;-39
2022/01/18 11:13:20;;;;;;;24.90;8.75;;;;;;;1.77;79.53;100656.71;1722154;82;21063;-38
2022/01/18 11:15:42;;;;;;;18.37;6.72;;;;;;;1.72;78.94;100659.28;1726635;83;21040;-38
2022/01/18 11:18:28;;;;;;;29.95;10.85;;;;;;;1.70;78.91;100655.81;1723654;83;21039;-38
2022/01/18 11:20:47;;;;;;;33.40;9.28;;;;;;;1.75;79.15;100653.22;1720205;83;20971;-39
2022/01/18 11:23:13;;;;;;;33.25;10.40;;;;;;;1.81;78.70;100657.14;1723475;83;21484;-38
2022/01/18 11:25:40;;;;;;;23.07;8.10;;;;;;;1.82;78.67;100653.67;1723607;83;20995;-38
2022/01/18 11:28:09;;;;;;;18.37;6.67;;;;;;;1.79;78.41;100650.65;1724237;83;21019;-39
2022/01/18 11:30:39;;;;;;;23.02;7.85;;;;;;;1.77;78.51;100654.12;1728803;83;20985;-38
2022/01/18 11:33:09;;;;;;;26.93;11.93;;;;;;;1.66;78.61;100647.60;1728552;83;21008;-37
2022/01/18 11:35:57;;;;;;;14.83;7.80;;;;;;;1.86;78.99;100650.25;1728956;83;21031;-38
2022/01/18 11:38:50;;;;;;;30.77;11.05;;;;;;;1.88;78.82;100646.78;1728951;83;20973;-38
2022/01/18 11:41:29;;;;;;;24.32;9.45;;;;;;;1.88;78.73;100646.78;1728194;83;21011;-38
2022/01/18 11:43:56;;;;;;;26.90;9.40;;;;;;;1.97;78.61;100637.30;1727612;83;21040;-39
2022/01/18 11:46:34;;;;;;;20.08;9.23;;;;;;;1.97;78.50;100649.83;1723617;82;21013;-38
2022/01/18 11:49:11;;;;;;;21.80;8.33;;;;;;;1.98;78.26;100636.41;1720740;82;21453;-40
2022/01/18 11:51:45;;;;;;;23.57;9.37;;;;;;;2.03;77.86;100642.48;1716710;83;20974;-39
2022/01/18 11:57:27;;;;;;;18.35;8.40;;;;;;;2.08;77.39;100652.00;1720382;83;20947;-39
2022/01/18 12:00:13;;;;;;;22.20;7.20;;;;;;;2.06;77.67;100634.27;1707869;83;21006;-39
2022/01/18 12:02:43;;;;;;;26.05;12.47;;;;;;;1.99;77.30;100636.42;1719275;83;21017;-38
2022/01/18 12:05:16;;;;;;;26.93;12.05;;;;;;;2.10;77.48;100632.55;1720021;83;20994;-43
2022/01/18 12:07:47;;;;;;;22.37;10.58;;;;;;;2.22;77.27;100635.16;1720076;83;21476;-39
2022/01/18 12:10:43;;;;;;;24.02;9.08;;;;;;;2.17;76.85;100639.91;1720792;83;21051;-40
2022/01/18 12:13:14;;;;;;;17.77;7.65;;;;;;;2.20;76.82;100629.51;1719146;83;21012;-39
2022/01/18 12:15:47;;;;;;;18.50;7.97;;;;;;;2.23;77.06;100640.77;1722054;83;21490;-39
2022/01/18 12:18:20;;;;;;;16.80;6.55;;;;;;;2.10;76.79;100653.30;1723716;83;21031;-39
2022/01/18 12:20:53;;;;;;;24.30;7.90;;;;;;;2.20;76.76;100653.76;1724281;82;21501;-38
2022/01/18 12:23:30;;;;;;;21.73;9.08;;;;;;;1.94;76.43;100656.73;1719986;82;21003;-39
2022/01/18 12:26:13;;;;;;;25.15;9.78;;;;;;;2.06;76.93;100656.77;1720552;83;21043;-39
2022/01/18 12:34:50;;;;;;;22.62;8.90;;;;;;;1.97;76.74;100671.02;1721446;83;20965;-38
2022/01/18 12:37:19;;;;;;;30.27;14.35;;;;;;;1.81;76.75;100658.00;1720333;83;21092;-38
2022/01/18 12:40:05;;;;;;;15.93;7.20;;;;;;;1.88;77.17;100654.56;1723908;82;21020;-38